Time;durP1;ratioP1;P1;durP2;ratioP2;P2;SDS_P1;SDS_P2;PMS_P1;PMS_P2;Temp;Humidity;BMP_temperature;BMP_pressure;BME280_temperature;BME280_humidity;BME280_pressure;Samples;Min_cycle;Max_cycle;Signal;HPM_P1;HPM_P2
2021/06/05 00:00:32;;;;;;;10.57;6.25;;;;;;;;;;5096226;28;20047;-63
2021/06/05 00:02:58;;;;;;;13.25;6.25;;;;;;;;;;5095679;28;20020;-64
2021/06/05 00:05:24;;;;;;;11.25;6.07;;;;;;;;;;5095528;28;20044;-64
2021/06/05 00:07:50;;;;;;;13.05;6.65;;;;;;;;;;5095947;28;20074;-63
2021/06/05 00:10:18;;;;;;;13.25;6.35;;;;;;;;;;5095814;28;20435;-63
2021/06/05 00:12:43;;;;;;;11.43;6.13;;;;;;;;;;5095813;28;20144;-63
2021/06/05 00:15:12;;;;;;;9.80;6.65;;;;;;;;;;5095621;28;20033;-63
2021/06/05 00:17:37;;;;;;;11.65;6.30;;;;;;;;;;5094839;28;20016;-63
2021/06/05 00:20:06;;;;;;;9.30;6.40;;;;;;;;;;5095073;28;20494;-64
2021/06/05 00:22:31;;;;;;;11.55;6.03;;;;;;;;;;5095122;28;20049;-63
2021/06/05 00:24:57;;;;;;;17.92;6.50;;;;;;;;;;5095420;28;20024;-63
2021/06/05 00:27:22;;;;;;;11.00;6.00;;;;;;;;;;5094986;28;20500;-63
2021/06/05 00:29:48;;;;;;;19.30;6.80;;;;;;;;;;5095646;28;20016;-63
2021/06/05 00:32:13;;;;;;;16.27;8.50;;;;;;;;;;5095064;28;20055;-63
2021/06/05 00:34:38;;;;;;;12.07;6.63;;;;;;;;;;5095301;28;20024;-63
2021/06/05 00:37:04;;;;;;;14.05;6.75;;;;;;;;;;5095025;28;20012;-63
2021/06/05 00:39:29;;;;;;;18.17;7.82;;;;;;;;;;5094734;28;20027;-63
2021/06/05 00:41:55;;;;;;;18.42;9.27;;;;;;;;;;5095152;28;20027;-63
2021/06/05 00:44:21;;;;;;;19.90;8.75;;;;;;;;;;5094951;28;20062;-63
2021/06/05 00:46:46;;;;;;;16.42;8.07;;;;;;;;;;5076744;28;20036;-63
2021/06/05 00:49:12;;;;;;;22.13;9.45;;;;;;;;;;5094507;28;20022;-63
2021/06/05 00:51:39;;;;;;;16.02;7.95;;;;;;;;;;5094146;28;20035;-63
2021/06/05 00:54:06;;;;;;;11.52;7.40;;;;;;;;;;5094810;28;20027;-63
2021/06/05 00:56:32;;;;;;;16.52;7.30;;;;;;;;;;5094969;28;20020;-63
2021/06/05 00:58:57;;;;;;;12.13;7.15;;;;;;;;;;5094907;28;20035;-63
2021/06/05 01:01:25;;;;;;;13.38;7.30;;;;;;;;;;5094322;28;20063;-63
2021/06/05 01:03:51;;;;;;;11.38;6.72;;;;;;;;;;5094431;28;20044;-63
2021/06/05 01:06:19;;;;;;;13.18;7.28;;;;;;;;;;5094480;28;20338;-63
2021/06/05 01:08:50;;;;;;;16.92;6.85;;;;;;;;;;5076500;28;20027;-64
2021/06/05 01:11:23;;;;;;;14.07;6.50;;;;;;;;;;5094373;28;20374;-63
2021/06/05 01:13:51;;;;;;;11.57;6.72;;;;;;;;;;5094589;28;20016;-63
2021/06/05 01:16:19;;;;;;;14.87;6.80;;;;;;;;;;5094360;28;20103;-63
2021/06/05 01:18:54;;;;;;;9.60;6.32;;;;;;;;;;5076347;28;20040;-63
2021/06/05 01:21:29;;;;;;;12.70;7.05;;;;;;;;;;5074931;28;20086;-63
2021/06/05 01:24:13;;;;;;;11.55;6.90;;;;;;;;;;5094393;28;20026;-63
2021/06/05 01:26:41;;;;;;;13.25;7.05;;;;;;;;;;5094307;28;20020;-63
2021/06/05 01:29:15;;;;;;;15.02;7.22;;;;;;;;;;5093831;28;20025;-63
2021/06/05 01:31:43;;;;;;;13.73;7.18;;;;;;;;;;5094285;28;20022;-63
2021/06/05 01:34:09;;;;;;;12.48;7.50;;;;;;;;;;5093918;28;20516;-63
2021/06/05 01:36:36;;;;;;;14.27;6.40;;;;;;;;;;5094283;28;20012;-63
2021/06/05 01:39:06;;;;;;;14.35;7.25;;;;;;;;;;5093870;28;20380;-63
2021/06/05 01:41:36;;;;;;;12.10;7.13;;;;;;;;;;5093601;28;20504;-63
2021/06/05 01:44:02;;;;;;;13.27;6.80;;;;;;;;;;5094244;28;20028;-63
2021/06/05 01:46:30;;;;;;;12.52;7.70;;;;;;;;;;5094080;28;20024;-63
2021/06/05 01:48:56;;;;;;;11.30;7.13;;;;;;;;;;5094026;28;20012;-63
2021/06/05 01:51:22;;;;;;;11.32;7.32;;;;;;;;;;5093534;28;20279;-63
2021/06/05 01:53:51;;;;;;;14.05;6.88;;;;;;;;;;5075607;28;20119;-63
2021/06/05 01:56:21;;;;;;;22.02;9.63;;;;;;;;;;5093459;28;20557;-63
2021/06/05 01:58:47;;;;;;;14.23;7.70;;;;;;;;;;5093492;28;20028;-63
2021/06/05 02:01:13;;;;;;;10.85;6.97;;;;;;;;;;5093275;28;20020;-63
2021/06/05 02:03:39;;;;;;;9.95;6.55;;;;;;;;;;5093700;28;20090;-63
2021/06/05 02:06:05;;;;;;;12.35;6.75;;;;;;;;;;5093550;28;20027;-63
2021/06/05 02:08:31;;;;;;;12.15;6.57;;;;;;;;;;5094081;28;20380;-63
2021/06/05 02:11:01;;;;;;;9.98;6.47;;;;;;;;;;5093426;28;20023;-63
2021/06/05 02:13:30;;;;;;;10.57;6.55;;;;;;;;;;5093039;28;20567;-63
2021/06/05 02:16:01;;;;;;;12.63;7.57;;;;;;;;;;5093235;28;20539;-63
2021/06/05 02:18:28;;;;;;;12.75;7.55;;;;;;;;;;5092810;28;20107;-63
2021/06/05 02:20:57;;;;;;;10.65;7.10;;;;;;;;;;5092333;28;20496;-63
2021/06/05 02:23:25;;;;;;;11.00;6.43;;;;;;;;;;5092903;28;20050;-63
2021/06/05 02:25:52;;;;;;;13.13;6.75;;;;;;;;;;5093094;28;20024;-63
2021/06/05 02:28:18;;;;;;;12.15;7.00;;;;;;;;;;5093131;28;20013;-63
2021/06/05 02:30:43;;;;;;;16.27;7.93;;;;;;;;;;5093208;28;20427;-63
2021/06/05 02:33:09;;;;;;;15.45;6.95;;;;;;;;;;5092978;28;20098;-63
2021/06/05 02:35:39;;;;;;;18.33;7.35;;;;;;;;;;5093099;28;20024;-63
2021/06/05 02:38:04;;;;;;;15.63;7.07;;;;;;;;;;5092302;28;20028;-63
2021/06/05 02:40:31;;;;;;;10.88;6.68;;;;;;;;;;5092561;28;20414;-63
2021/06/05 02:43:00;;;;;;;10.38;6.28;;;;;;;;;;5092945;28;20042;-63
2021/06/05 02:45:28;;;;;;;11.25;6.75;;;;;;;;;;5092859;28;20028;-63
2021/06/05 02:47:54;;;;;;;19.77;7.60;;;;;;;;;;5074776;28;20094;-63
2021/06/05 02:50:21;;;;;;;14.60;7.65;;;;;;;;;;5092564;28;20034;-63
2021/06/05 02:52:46;;;;;;;11.57;7.85;;;;;;;;;;5093005;28;20035;-63
2021/06/05 02:55:14;;;;;;;14.73;7.65;;;;;;;;;;5074266;28;20020;-63
2021/06/05 02:57:40;;;;;;;11.27;7.22;;;;;;;;;;5093008;28;20021;-63
2021/06/05 03:00:08;;;;;;;20.58;7.45;;;;;;;;;;5092556;28;20397;-63
2021/06/05 03:02:33;;;;;;;14.38;7.38;;;;;;;;;;5092728;28;20070;-63
2021/06/05 03:04:59;;;;;;;13.50;7.88;;;;;;;;;;5092746;28;20032;-63
2021/06/05 03:07:24;;;;;;;8.98;6.10;;;;;;;;;;5092470;28;20095;-63
2021/06/05 03:09:50;;;;;;;12.30;6.75;;;;;;;;;;5092784;28;20484;-63
2021/06/05 03:12:16;;;;;;;15.00;7.85;;;;;;;;;;5092558;28;20111;-63
2021/06/05 03:14:42;;;;;;;17.48;7.45;;;;;;;;;;5092608;28;20016;-63
2021/06/05 03:17:08;;;;;;;12.60;7.20;;;;;;;;;;5074717;28;20028;-63
2021/06/05 03:19:34;;;;;;;12.73;7.30;;;;;;;;;;5092415;28;20019;-63
2021/06/05 03:22:00;;;;;;;12.73;7.10;;;;;;;;;;5091631;28;20048;-63
2021/06/05 03:24:25;;;;;;;12.38;6.97;;;;;;;;;;5092823;28;20016;-63
2021/06/05 03:26:51;;;;;;;12.27;7.32;;;;;;;;;;5092595;28;20414;-63
2021/06/05 03:29:16;;;;;;;8.70;6.55;;;;;;;;;;5092348;28;20548;-63
2021/06/05 03:31:42;;;;;;;11.95;7.05;;;;;;;;;;5092579;28;20381;-63
2021/06/05 03:34:07;;;;;;;10.98;6.57;;;;;;;;;;5092394;28;20058;-63
2021/06/05 03:36:33;;;;;;;12.38;7.30;;;;;;;;;;5092375;28;20016;-63
2021/06/05 03:38:59;;;;;;;11.13;6.47;;;;;;;;;;5092491;28;20035;-63
2021/06/05 03:41:24;;;;;;;10.65;7.47;;;;;;;;;;5092083;28;20490;-63
2021/06/05 03:43:50;;;;;;;8.80;6.10;;;;;;;;;;5092515;28;20028;-63
2021/06/05 03:46:16;;;;;;;13.48;7.03;;;;;;;;;;5092478;28;20028;-63
2021/06/05 03:48:41;;;;;;;17.85;7.97;;;;;;;;;;5092547;28;20027;-63
2021/06/05 03:51:08;;;;;;;10.23;6.95;;;;;;;;;;5091438;28;20048;-63
2021/06/05 03:53:34;;;;;;;13.30;6.57;;;;;;;;;;5093494;28;20403;-63
2021/06/05 03:56:00;;;;;;;12.75;7.00;;;;;;;;;;5096117;28;20046;-63
2021/06/05 03:58:27;;;;;;;10.88;6.30;;;;;;;;;;5096099;28;20020;-63
2021/06/05 04:00:53;;;;;;;12.00;7.10;;;;;;;;;;5095881;28;20027;-63
2021/06/05 04:03:19;;;;;;;18.30;8.45;;;;;;;;;;5095589;28;20025;-62
2021/06/05 04:05:44;;;;;;;18.38;7.97;;;;;;;;;;5095621;28;20031;-63
2021/06/05 04:08:11;;;;;;;18.52;8.50;;;;;;;;;;5095548;28;20099;-63
2021/06/05 04:10:37;;;;;;;16.63;6.90;;;;;;;;;;5095695;28;20480;-63
2021/06/05 04:13:02;;;;;;;13.57;6.60;;;;;;;;;;5095507;28;20064;-63
2021/06/05 04:15:28;;;;;;;17.35;6.53;;;;;;;;;;5095390;28;20024;-63
2021/06/05 04:17:58;;;;;;;13.93;6.88;;;;;;;;;;5095340;28;20024;-63
2021/06/05 04:20:24;;;;;;;13.43;5.93;;;;;;;;;;5094402;28;20016;-63
2021/06/05 04:22:49;;;;;;;12.55;6.10;;;;;;;;;;5095598;28;20579;-63
2021/06/05 04:25:15;;;;;;;12.18;6.35;;;;;;;;;;5095169;28;20031;-63
2021/06/05 04:27:40;;;;;;;20.85;6.80;;;;;;;;;;5095276;28;20089;-63
2021/06/05 04:30:09;;;;;;;14.30;6.80;;;;;;;;;;5095127;28;20353;-63
2021/06/05 04:32:35;;;;;;;13.45;5.60;;;;;;;;;;5095138;28;20492;-63
2021/06/05 04:35:00;;;;;;;10.55;5.68;;;;;;;;;;5095188;28;20062;-63
2021/06/05 04:37:25;;;;;;;12.10;5.47;;;;;;;;;;5094847;28;20020;-63
2021/06/05 04:39:51;;;;;;;11.80;5.68;;;;;;;;;;5095315;28;20098;-63
2021/06/05 04:42:16;;;;;;;16.02;6.97;;;;;;;;;;5094913;28;20059;-63
2021/06/05 04:44:42;;;;;;;14.13;6.63;;;;;;;;;;5095203;28;20349;-63
2021/06/05 04:47:07;;;;;;;14.75;6.85;;;;;;;;;;5094897;28;20089;-63
2021/06/05 04:49:32;;;;;;;19.27;7.75;;;;;;;;;;5094616;28;20027;-63
2021/06/05 04:51:58;;;;;;;13.93;8.57;;;;;;;;;;5094301;28;20017;-63
2021/06/05 04:54:23;;;;;;;12.60;7.65;;;;;;;;;;5094818;28;20031;-63
2021/06/05 04:56:49;;;;;;;25.77;8.13;;;;;;;;;;5095124;28;20406;-64
2021/06/05 04:59:16;;;;;;;20.67;8.80;;;;;;;;;;5094572;28;20099;-63
2021/06/05 05:01:42;;;;;;;16.27;9.13;;;;;;;;;;5094583;28;20499;-63
2021/06/05 05:04:07;;;;;;;13.15;8.10;;;;;;;;;;5094008;28;20111;-63
2021/06/05 05:06:34;;;;;;;18.25;7.70;;;;;;;;;;5094619;28;20146;-63
2021/06/05 05:08:59;;;;;;;11.55;6.35;;;;;;;;;;5076661;28;20491;-64
2021/06/05 05:11:25;;;;;;;12.85;6.18;;;;;;;;;;5094415;28;20016;-63
2021/06/05 05:13:51;;;;;;;13.57;6.50;;;;;;;;;;5094237;28;20022;-63
2021/06/05 05:16:17;;;;;;;13.07;6.03;;;;;;;;;;5094173;28;20028;-64
2021/06/05 05:18:46;;;;;;;12.10;5.40;;;;;;;;;;5094274;28;20016;-64
2021/06/05 05:32:20;;;;;;;11.55;5.18;;;;;;;;;;3304997;26;20135;-63
2021/06/05 05:34:45;;;;;;;20.40;5.40;;;;;;;;;;5074067;28;20119;-64
2021/06/05 05:37:10;;;;;;;11.35;5.57;;;;;;;;;;5073668;28;20009;-64
2021/06/05 05:39:36;;;;;;;17.63;5.68;;;;;;;;;;5073675;28;20481;-63
2021/06/05 05:42:01;;;;;;;11.70;4.72;;;;;;;;;;5072961;28;20019;-63
2021/06/05 05:44:27;;;;;;;12.65;5.60;;;;;;;;;;5073621;28;20013;-64
2021/06/05 05:46:53;;;;;;;15.07;5.43;;;;;;;;;;5073566;28;20440;-64
2021/06/05 05:49:18;;;;;;;13.23;5.32;;;;;;;;;;5072893;28;20066;-63
2021/06/05 05:51:44;;;;;;;14.35;5.40;;;;;;;;;;5072902;28;20028;-64
2021/06/05 05:54:09;;;;;;;9.40;4.53;;;;;;;;;;5073109;28;20008;-64
2021/06/05 05:56:35;;;;;;;10.93;4.78;;;;;;;;;;5073350;28;20033;-64
2021/06/05 05:59:01;;;;;;;18.70;5.20;;;;;;;;;;5073303;28;20024;-64
2021/06/05 06:01:27;;;;;;;14.23;4.65;;;;;;;;;;5072015;28;20070;-64
2021/06/05 06:03:54;;;;;;;15.13;5.55;;;;;;;;;;5072255;28;20033;-64
2021/06/05 06:06:20;;;;;;;15.45;4.72;;;;;;;;;;5073132;28;20067;-64
2021/06/05 06:08:45;;;;;;;14.07;6.03;;;;;;;;;;5073008;28;20485;-64
2021/06/05 06:11:12;;;;;;;11.80;5.57;;;;;;;;;;5072762;28;20099;-64
2021/06/05 06:13:38;;;;;;;14.40;5.28;;;;;;;;;;5073062;28;20052;-64
2021/06/05 06:16:04;;;;;;;13.70;5.47;;;;;;;;;;5071281;28;20044;-64
2021/06/05 06:18:30;;;;;;;14.35;6.03;;;;;;;;;;5072671;28;20112;-64
2021/06/05 07:13:33;;;;;;;9.93;2.63;;;;;;;;;;5069748;28;20048;-64
2021/06/05 07:15:59;;;;;;;4.15;3.38;;;;;;;;;;5071872;28;20504;-64
2021/06/05 07:18:26;;;;;;;3.80;2.33;;;;;;;;;;5071859;28;20021;-64
2021/06/05 07:41:30;;;;;;;7.75;2.35;;;;;;;;;;5053660;28;20045;-63
2021/06/05 07:43:55;;;;;;;9.52;2.70;;;;;;;;;;5056231;28;20428;-64
2021/06/05 07:46:20;;;;;;;5.15;2.33;;;;;;;;;;5055684;28;20374;-63
2021/06/05 07:48:47;;;;;;;6.97;2.20;;;;;;;;;;5055597;28;20075;-63
2021/06/05 07:51:12;;;;;;;8.27;2.53;;;;;;;;;;5054579;28;20009;-64
2021/06/05 07:53:38;;;;;;;6.70;2.20;;;;;;;;;;5055534;28;20029;-63
2021/06/05 07:56:04;;;;;;;10.38;2.33;;;;;;;;;;5054454;28;20120;-63
2021/06/05 07:58:29;;;;;;;8.75;2.58;;;;;;;;;;5037915;28;20074;-64
2021/06/05 08:00:55;;;;;;;5.70;1.98;;;;;;;;;;5055531;28;20025;-64
2021/06/05 08:03:20;;;;;;;5.45;2.08;;;;;;;;;;5055238;28;20033;-64
2021/06/05 08:05:45;;;;;;;12.75;2.53;;;;;;;;;;5055534;28;20374;-64
2021/06/05 08:08:12;;;;;;;3.78;2.20;;;;;;;;;;5054795;28;20036;-64
2021/06/05 08:10:39;;;;;;;5.65;1.75;;;;;;;;;;5055548;28;20496;-64
2021/06/05 08:13:05;;;;;;;4.03;2.20;;;;;;;;;;5055359;28;20021;-63
2021/06/05 08:15:32;;;;;;;4.32;1.88;;;;;;;;;;5055174;28;20044;-64
2021/06/05 08:17:58;;;;;;;6.97;2.20;;;;;;;;;;5055370;28;20027;-64
2021/06/05 08:20:26;;;;;;;7.03;2.47;;;;;;;;;;5055013;28;20100;-64
2021/06/05 08:22:51;;;;;;;6.57;1.90;;;;;;;;;;5036898;28;20017;-64
2021/06/05 08:25:17;;;;;;;2.15;1.90;;;;;;;;;;5054542;28;20166;-64
2021/06/05 08:27:43;;;;;;;4.20;1.98;;;;;;;;;;5037005;28;20028;-64
2021/06/05 08:30:12;;;;;;;5.47;2.40;;;;;;;;;;5054762;28;20474;-64
2021/06/05 08:32:37;;;;;;;2.58;1.50;;;;;;;;;;5055174;28;20022;-64
2021/06/05 08:35:03;;;;;;;6.22;2.40;;;;;;;;;;5054714;28;20079;-64
2021/06/05 08:37:28;;;;;;;8.88;2.05;;;;;;;;;;5054472;28;20029;-64
2021/06/05 08:39:54;;;;;;;5.55;2.58;;;;;;;;;;5053862;28;20494;-64
2021/06/05 08:42:25;;;;;;;3.30;1.40;;;;;;;;;;5054440;28;20100;-64
2021/06/05 08:44:51;;;;;;;6.47;2.00;;;;;;;;;;5054931;28;20071;-64
2021/06/05 08:47:19;;;;;;;4.95;1.88;;;;;;;;;;5054565;28;20056;-65
2021/06/05 08:49:45;;;;;;;5.25;1.92;;;;;;;;;;5054903;28;20461;-65
2021/06/05 08:52:29;;;;;;;3.47;1.90;;;;;;;;;;5053874;28;20029;-64
2021/06/05 08:55:10;;;;;;;2.28;1.88;;;;;;;;;;5054790;28;20377;-64
2021/06/05 08:57:47;;;;;;;3.92;1.90;;;;;;;;;;5054285;28;20009;-64
2021/06/05 09:00:21;;;;;;;3.40;1.80;;;;;;;;;;5054311;28;20504;-64
2021/06/05 09:02:48;;;;;;;11.80;2.70;;;;;;;;;;5054389;28;20420;-64
2021/06/05 09:05:16;;;;;;;7.65;2.17;;;;;;;;;;5053904;28;20396;-64
2021/06/05 09:07:42;;;;;;;7.30;2.58;;;;;;;;;;5032317;28;20021;-64
2021/06/05 09:10:08;;;;;;;4.93;2.03;;;;;;;;;;5032457;28;20378;-64
2021/06/05 09:12:34;;;;;;;8.45;2.30;;;;;;;;;;5052998;28;20032;-64
2021/06/05 09:15:00;;;;;;;5.00;1.98;;;;;;;;;;5054000;28;20021;-64
2021/06/05 09:17:36;;;;;;;7.00;1.98;;;;;;;;;;5053954;28;20029;-63
2021/06/05 09:20:11;;;;;;;5.53;1.77;;;;;;;;;;5054011;28;20024;-63
2021/06/05 09:22:39;;;;;;;3.65;1.85;;;;;;;;;;5035801;28;20021;-63
2021/06/05 09:25:22;;;;;;;4.90;2.27;;;;;;;;;;5031804;28;20509;-64
2021/06/05 09:27:48;;;;;;;10.18;2.60;;;;;;;;;;5053880;28;20051;-64
2021/06/05 09:30:36;;;;;;;4.80;2.22;;;;;;;;;;5053932;28;20021;-64
2021/06/05 09:33:06;;;;;;;7.15;1.83;;;;;;;;;;5036097;28;20457;-64
2021/06/05 09:35:42;;;;;;;9.68;2.40;;;;;;;;;;5036179;28;20063;-64
2021/06/05 09:38:16;;;;;;;4.35;2.30;;;;;;;;;;5053553;28;20017;-63
2021/06/05 09:41:00;;;;;;;4.75;1.83;;;;;;;;;;5053578;28;20041;-63
2021/06/05 09:43:26;;;;;;;3.55;1.90;;;;;;;;;;5053353;28;20049;-63
2021/06/05 09:46:10;;;;;;;9.55;2.22;;;;;;;;;;5035613;28;20025;-64
2021/06/05 09:48:43;;;;;;;4.18;2.30;;;;;;;;;;5053644;28;20059;-64
2021/06/05 09:51:27;;;;;;;2.45;2.25;;;;;;;;;;5051825;28;20064;-64
2021/06/05 09:53:57;;;;;;;6.50;2.42;;;;;;;;;;5053629;28;20370;-64
2021/06/05 09:56:26;;;;;;;5.40;1.73;;;;;;;;;;5053195;28;20013;-64
2021/06/05 09:59:03;;;;;;;6.35;2.40;;;;;;;;;;5053459;28;20044;-64
2021/06/05 10:01:30;;;;;;;6.95;2.40;;;;;;;;;;5053038;28;20063;-64
2021/06/05 10:03:57;;;;;;;6.25;1.80;;;;;;;;;;5035302;28;20025;-64
2021/06/05 10:06:33;;;;;;;5.82;1.75;;;;;;;;;;5053319;28;20027;-64
2021/06/05 10:08:58;;;;;;;11.23;2.38;;;;;;;;;;5053199;28;20036;-64
2021/06/05 10:11:30;;;;;;;6.20;1.95;;;;;;;;;;5052873;28;20025;-63
2021/06/05 10:14:03;;;;;;;8.82;2.20;;;;;;;;;;5053044;28;20025;-64
2021/06/05 10:16:29;;;;;;;6.47;1.90;;;;;;;;;;5053424;28;20032;-64
2021/06/05 10:19:00;;;;;;;4.03;2.20;;;;;;;;;;5053043;28;20013;-63
2021/06/05 10:21:37;;;;;;;2.92;1.75;;;;;;;;;;5052198;28;20056;-64
2021/06/05 10:24:21;;;;;;;4.80;2.10;;;;;;;;;;5052519;28;20032;-64
2021/06/05 10:26:47;;;;;;;3.88;2.00;;;;;;;;;;5053080;28;20035;-64
2021/06/05 10:29:17;;;;;;;5.38;2.00;;;;;;;;;;5052765;28;20021;-63
2021/06/05 10:31:43;;;;;;;6.05;2.55;;;;;;;;;;5052998;28;20112;-64
2021/06/05 10:34:12;;;;;;;3.70;2.00;;;;;;;;;;5052545;28;20116;-64
2021/06/05 10:36:41;;;;;;;4.47;1.90;;;;;;;;;;5052804;28;20025;-64
2021/06/05 10:39:25;;;;;;;4.90;2.03;;;;;;;;;;5034539;28;20386;-64
2021/06/05 10:41:53;;;;;;;7.13;1.60;;;;;;;;;;5052608;28;20017;-64
2021/06/05 10:44:19;;;;;;;;;;;;;;;;;;5053101;28;20028;-64
2021/06/05 10:46:54;;;;;;;7.03;1.97;;;;;;;;;;5052902;28;20000;-64
2021/06/05 10:49:28;;;;;;;3.92;1.92;;;;;;;;;;5034073;28;20020;-64
2021/06/05 10:52:02;;;;;;;6.50;1.95;;;;;;;;;;5051988;28;20017;-65
2021/06/05 10:54:28;;;;;;;5.38;2.33;;;;;;;;;;5052699;28;20382;-64
2021/06/05 10:57:12;;;;;;;7.22;2.30;;;;;;;;;;5052290;28;20044;-64
2021/06/05 10:59:46;;;;;;;5.43;2.25;;;;;;;;;;5052329;28;20023;-64
2021/06/05 11:02:30;;;;;;;7.25;2.35;;;;;;;;;;5053327;28;20025;-64
2021/06/05 11:04:55;;;;;;;4.97;2.00;;;;;;;;;;5056677;28;20032;-64
2021/06/05 11:07:24;;;;;;;8.10;2.10;;;;;;;;;;5056755;28;20025;-64
2021/06/05 11:09:51;;;;;;;3.70;2.15;;;;;;;;;;5056845;28;20021;-64
2021/06/05 11:12:26;;;;;;;7.85;2.40;;;;;;;;;;5034269;28;20405;-64
2021/06/05 11:14:53;;;;;;;8.27;2.42;;;;;;;;;;5056642;28;20099;-64
2021/06/05 11:17:26;;;;;;;3.88;2.10;;;;;;;;;;5056005;28;20032;-63
2021/06/05 11:19:54;;;;;;;5.60;2.28;;;;;;;;;;5056405;28;20013;-64
2021/06/05 11:22:24;;;;;;;2.97;2.58;;;;;;;;;;5055426;28;20492;-64
2021/06/05 11:25:08;;;;;;;8.80;2.92;;;;;;;;;;5056092;28;20049;-64
2021/06/05 11:27:43;;;;;;;6.93;2.08;;;;;;;;;;5056102;28;20052;-64
2021/06/05 11:30:15;;;;;;;5.90;2.20;;;;;;;;;;5056013;28;20017;-64
2021/06/05 11:32:49;;;;;;;4.60;1.73;;;;;;;;;;5056284;28;20021;-64
2021/06/05 11:35:32;;;;;;;3.90;2.22;;;;;;;;;;5055859;28;20465;-64
2021/06/05 11:38:00;;;;;;;4.80;1.75;;;;;;;;;;5056072;28;20385;-64
2021/06/05 11:40:44;;;;;;;11.45;2.65;;;;;;;;;;5055757;28;20142;-64
2021/06/05 11:43:19;;;;;;;5.35;2.95;;;;;;;;;;5056011;28;20047;-64
2021/06/05 11:46:04;;;;;;;8.40;2.08;;;;;;;;;;5055703;28;20059;-64
2021/06/05 11:48:45;;;;;;;3.08;1.70;;;;;;;;;;5056023;28;20031;-64
2021/06/05 11:51:26;;;;;;;6.78;2.22;;;;;;;;;;5055082;28;20362;-64
2021/06/05 11:53:53;;;;;;;7.80;2.08;;;;;;;;;;5033746;28;20028;-64
2021/06/05 11:56:23;;;;;;;3.05;1.80;;;;;;;;;;5050952;28;20373;-64
2021/06/05 11:58:49;;;;;;;4.15;1.98;;;;;;;;;;5055856;28;20029;-64
2021/06/05 12:01:21;;;;;;;14.10;2.08;;;;;;;;;;5055161;28;20013;-64
2021/06/05 12:04:05;;;;;;;3.95;2.00;;;;;;;;;;5055740;28;20128;-64
2021/06/05 12:06:39;;;;;;;6.45;1.98;;;;;;;;;;5055257;28;20120;-64
2021/06/05 12:09:19;;;;;;;4.00;2.08;;;;;;;;;;5055585;28;20029;-64
2021/06/05 12:11:52;;;;;;;2.97;1.92;;;;;;;;;;5055583;28;20469;-64
2021/06/05 12:14:55;;;;;;;3.63;1.85;;;;;;;;;;5054222;28;20115;-64
2021/06/05 12:17:37;;;;;;;1.90;1.58;;;;;;;;;;5055309;28;20021;-64
2021/06/05 12:20:13;;;;;;;3.90;2.20;;;;;;;;;;5055263;28;20063;-64
2021/06/05 12:22:40;;;;;;;4.72;1.80;;;;;;;;;;5054524;28;20104;-64
2021/06/05 12:25:07;;;;;;;6.25;2.25;;;;;;;;;;5055267;28;20025;-64
2021/06/05 12:27:38;;;;;;;9.07;2.22;;;;;;;;;;5054635;28;20017;-64
2021/06/05 12:30:12;;;;;;;3.30;2.05;;;;;;;;;;5054963;28;20087;-64
2021/06/05 12:32:41;;;;;;;3.35;2.55;;;;;;;;;;5055221;28;20013;-64
2021/06/05 12:35:21;;;;;;;5.05;1.92;;;;;;;;;;5055069;28;20021;-64
2021/06/05 12:37:49;;;;;;;14.52;2.75;;;;;;;;;;5054724;28;20017;-64
2021/06/05 12:40:19;;;;;;;11.07;2.30;;;;;;;;;;5032760;28;20050;-64
2021/06/05 12:42:46;;;;;;;7.38;2.17;;;;;;;;;;5033023;28;20029;-64
2021/06/05 12:45:30;;;;;;;4.38;2.30;;;;;;;;;;5052657;28;20120;-63
2021/06/05 12:47:57;;;;;;;4.43;2.17;;;;;;;;;;5054980;28;20024;-64
2021/06/05 12:50:28;;;;;;;6.10;2.00;;;;;;;;;;5054651;28;20036;-64
2021/06/05 12:52:54;;;;;;;6.50;2.10;;;;;;;;;;5054954;28;20021;-64
2021/06/05 12:55:31;;;;;;;3.33;1.98;;;;;;;;;;5054283;28;20017;-64
2021/06/05 12:57:59;;;;;;;5.25;2.03;;;;;;;;;;5055312;28;20473;-64
2021/06/05 13:00:34;;;;;;;4.07;1.92;;;;;;;;;;5054473;28;20020;-64
2021/06/05 13:03:12;;;;;;;3.97;2.30;;;;;;;;;;5053997;28;20024;-64
2021/06/05 13:05:39;;;;;;;4.15;2.25;;;;;;;;;;5054582;28;20029;-63
2021/06/05 13:08:19;;;;;;;4.30;1.90;;;;;;;;;;5054189;28;20040;-64
2021/06/05 13:10:49;;;;;;;4.47;2.30;;;;;;;;;;5054574;28;20381;-63
2021/06/05 13:13:17;;;;;;;5.47;2.22;;;;;;;;;;5036042;28;20095;-63
2021/06/05 13:15:52;;;;;;;4.30;2.00;;;;;;;;;;5054026;28;20032;-63
2021/06/05 13:18:28;;;;;;;5.68;2.10;;;;;;;;;;5053999;28;20120;-63
2021/06/05 13:20:55;;;;;;;4.95;2.13;;;;;;;;;;5053322;28;20012;-64
2021/06/05 13:23:26;;;;;;;3.55;2.00;;;;;;;;;;5054336;28;20013;-64
2021/06/05 13:25:53;;;;;;;4.57;2.38;;;;;;;;;;5053516;28;20031;-63
2021/06/05 13:28:27;;;;;;;4.72;2.20;;;;;;;;;;5053819;28;20048;-63
2021/06/05 13:30:57;;;;;;;6.65;2.10;;;;;;;;;;5054325;28;20017;-64
2021/06/05 13:33:41;;;;;;;6.82;2.05;;;;;;;;;;5053848;28;20025;-63
2021/06/05 13:36:09;;;;;;;5.30;2.17;;;;;;;;;;5031852;28;20032;-64
2021/06/05 13:38:49;;;;;;;4.90;1.88;;;;;;;;;;5049279;28;20017;-63
2021/06/05 13:41:15;;;;;;;3.80;2.05;;;;;;;;;;5053251;28;20521;-64
2021/06/05 13:43:40;;;;;;;5.43;2.58;;;;;;;;;;5053154;28;20075;-63
2021/06/05 13:46:06;;;;;;;11.90;2.47;;;;;;;;;;5053368;28;20116;-64
2021/06/05 13:48:31;;;;;;;10.50;2.28;;;;;;;;;;5053731;28;20079;-64
2021/06/05 13:50:56;;;;;;;5.15;2.13;;;;;;;;;;5052840;28;20441;-65
2021/06/05 13:53:27;;;;;;;5.30;1.90;;;;;;;;;;5053378;28;20067;-64
2021/06/05 13:55:54;;;;;;;5.25;2.25;;;;;;;;;;5053613;28;20071;-64
2021/06/05 13:58:20;;;;;;;4.30;2.00;;;;;;;;;;5053177;28;20029;-64
2021/06/05 14:00:47;;;;;;;7.07;2.50;;;;;;;;;;5053499;28;20078;-64
2021/06/05 14:03:13;;;;;;;2.97;2.53;;;;;;;;;;5053177;28;20025;-64
2021/06/05 14:05:39;;;;;;;3.63;1.92;;;;;;;;;;5053205;28;20073;-64
2021/06/05 14:08:04;;;;;;;9.35;2.08;;;;;;;;;;5053349;28;20024;-64
2021/06/05 14:10:30;;;;;;;5.68;2.47;;;;;;;;;;5052911;28;20367;-64
2021/06/05 14:12:57;;;;;;;5.35;2.40;;;;;;;;;;5053106;28;20051;-63
2021/06/05 14:15:25;;;;;;;6.30;2.15;;;;;;;;;;5034890;28;20412;-63
2021/06/05 14:17:51;;;;;;;16.15;2.30;;;;;;;;;;5053451;28;20021;-64
2021/06/05 14:20:19;;;;;;;2.80;1.85;;;;;;;;;;5052663;28;20035;-64
2021/06/05 14:22:44;;;;;;;5.30;2.40;;;;;;;;;;5052457;28;20079;-64
2021/06/05 14:25:12;;;;;;;6.45;2.10;;;;;;;;;;5052961;28;20482;-64
2021/06/05 14:27:37;;;;;;;2.72;2.33;;;;;;;;;;5052831;28;20473;-64
2021/06/05 14:30:06;;;;;;;3.83;2.00;;;;;;;;;;5052845;28;20056;-64
2021/06/05 14:32:31;;;;;;;3.95;2.20;;;;;;;;;;5052843;28;20025;-63
2021/06/05 14:34:57;;;;;;;7.95;2.40;;;;;;;;;;5052607;28;20060;-64
2021/06/05 14:37:22;;;;;;;6.03;2.28;;;;;;;;;;5051914;28;20067;-64
2021/06/05 14:39:47;;;;;;;3.22;2.10;;;;;;;;;;5052673;28;20516;-64
2021/06/05 14:42:16;;;;;;;4.22;1.77;;;;;;;;;;5052614;28;20493;-64
2021/06/05 14:44:41;;;;;;;4.05;1.95;;;;;;;;;;5052886;28;20095;-63
2021/06/05 14:47:07;;;;;;;8.32;2.38;;;;;;;;;;5052730;28;20481;-64
2021/06/05 14:49:32;;;;;;;6.07;2.30;;;;;;;;;;5052402;28;20013;-64
2021/06/05 14:51:58;;;;;;;3.60;2.00;;;;;;;;;;5052086;28;20162;-64
2021/06/05 14:54:24;;;;;;;8.85;2.95;;;;;;;;;;5052550;28;20099;-64
2021/06/05 14:56:50;;;;;;;6.03;2.13;;;;;;;;;;5052620;28;20048;-64
2021/06/05 14:59:15;;;;;;;3.88;1.88;;;;;;;;;;5034737;28;20110;-64
2021/06/05 15:01:41;;;;;;;3.22;2.25;;;;;;;;;;5034982;28;20017;-64
2021/06/05 15:04:07;;;;;;;3.63;2.40;;;;;;;;;;5052457;28;20055;-64
2021/06/05 15:06:33;;;;;;;6.80;2.70;;;;;;;;;;5052555;28;20124;-63
2021/06/05 15:08:59;;;;;;;9.18;2.42;;;;;;;;;;5052392;28;20024;-64
2021/06/05 15:11:25;;;;;;;6.20;2.10;;;;;;;;;;5052083;28;20021;-63
2021/06/05 15:13:50;;;;;;;8.95;2.35;;;;;;;;;;5052319;28;20017;-64
2021/06/05 15:16:16;;;;;;;5.38;2.33;;;;;;;;;;5052305;28;20029;-64
2021/06/05 15:18:41;;;;;;;5.25;2.15;;;;;;;;;;5052310;28;20021;-63
2021/06/05 15:21:07;;;;;;;5.22;2.35;;;;;;;;;;5051171;28;20017;-63
2021/06/05 15:23:32;;;;;;;6.40;2.17;;;;;;;;;;5051972;28;20076;-64
2021/06/05 15:25:58;;;;;;;4.93;2.13;;;;;;;;;;5052315;28;20032;-64
2021/06/05 15:28:23;;;;;;;5.50;2.72;;;;;;;;;;5052396;28;20381;-64
2021/06/05 15:30:50;;;;;;;7.80;2.20;;;;;;;;;;5052242;28;20428;-63
2021/06/05 15:33:16;;;;;;;15.68;2.78;;;;;;;;;;5052157;28;20533;-63
2021/06/05 15:35:42;;;;;;;11.70;2.70;;;;;;;;;;5052377;28;20021;-63
2021/06/05 15:38:08;;;;;;;7.40;2.58;;;;;;;;;;5052228;28;20021;-63
2021/06/05 15:40:34;;;;;;;5.50;2.50;;;;;;;;;;5051862;28;20041;-64
2021/06/05 15:43:00;;;;;;;3.63;2.10;;;;;;;;;;5052616;28;20119;-63
2021/06/05 15:45:28;;;;;;;3.03;2.15;;;;;;;;;;5029788;28;20039;-63
2021/06/05 15:47:55;;;;;;;4.50;2.23;;;;;;;;;;5051855;28;20420;-64
2021/06/05 15:50:22;;;;;;;3.25;2.10;;;;;;;;;;5055429;28;20473;-64
2021/06/05 15:52:47;;;;;;;3.80;2.10;;;;;;;;;;5055327;28;20432;-63
2021/06/05 15:55:13;;;;;;;3.58;2.17;;;;;;;;;;5055451;28;20017;-63
2021/06/05 15:57:38;;;;;;;5.88;2.40;;;;;;;;;;5055843;28;20378;-63
2021/06/05 16:00:09;;;;;;;2.88;2.00;;;;;;;;;;5055415;28;20021;-63
2021/06/05 16:02:34;;;;;;;9.98;3.03;;;;;;;;;;5055630;28;20021;-63
2021/06/05 16:04:59;;;;;;;5.45;2.30;;;;;;;;;;5055404;28;20027;-63
2021/06/05 16:07:25;;;;;;;7.57;2.50;;;;;;;;;;5037320;28;20021;-63
2021/06/05 16:09:50;;;;;;;5.50;2.80;;;;;;;;;;5055706;28;20040;-63